createdAt,value
2019-05-05T00:00:00.790Z,79.9
2019-05-05T00:05:00.769Z,80.8
2019-05-05T00:10:00.141Z,80.4
2019-05-05T00:15:00.397Z,80.9
2019-05-05T00:20:00.463Z,81
2019-05-05T00:25:00.646Z,81.5
2019-05-05T00:30:00.505Z,82.2
2019-05-05T00:35:00.605Z,82.7
2019-05-05T00:40:00.759Z,82.5
2019-05-05T00:45:00.242Z,82.7
2019-05-05T00:50:00.771Z,83
2019-05-05T00:55:00.226Z,82.6
2019-05-05T01:00:00.407Z,83.2
2019-05-05T01:04:59.969Z,83.5
2019-05-05T01:10:00.539Z,84.3
2019-05-05T01:15:00.215Z,84.9
2019-05-05T01:20:03.827Z,85.2
2019-05-05T01:24:59.848Z,84.8
2019-05-05T01:30:01.135Z,85.2
2019-05-05T01:34:59.967Z,85.4
2019-05-05T01:40:00.289Z,85.6
2019-05-05T01:44:59.925Z,85.6
2019-05-05T01:50:13.741Z,85.3
2019-05-05T01:54:59.900Z,85.2
2019-05-05T02:00:00.445Z,81.9
2019-05-05T02:05:00.298Z,86.1
2019-05-05T02:10:00.240Z,93
2019-05-05T02:15:00.914Z,97.1
2019-05-05T02:20:00.312Z,98
2019-05-05T02:25:00.074Z,97.3
2019-05-05T02:30:06.171Z,97.6
2019-05-05T02:40:07.685Z,96.4
2019-05-05T02:45:07.620Z,96.5
2019-05-05T02:50:00.861Z,96.6
2019-05-05T02:55:00.689Z,95.9
2019-05-05T03:00:00.730Z,96.1
2019-05-05T03:05:00.911Z,95.4
2019-05-05T03:10:00.786Z,96
2019-05-05T03:15:00.576Z,96
2019-05-05T03:20:00.656Z,94.6
2019-05-05T03:25:00.740Z,95
2019-05-05T03:30:00.709Z,95.8
2019-05-05T03:35:00.720Z,95.3
2019-05-05T03:40:00.712Z,94.9
2019-05-05T03:45:00.572Z,93.5
2019-05-05T03:50:00.813Z,94.1
2019-05-05T03:55:00.718Z,93.1
2019-05-05T04:00:01.019Z,93.1
2019-05-05T04:05:00.599Z,94.1
2019-05-05T04:10:00.961Z,94
2019-05-05T04:15:00.658Z,93.4
2019-05-05T04:20:00.456Z,93.3
2019-05-05T04:25:00.295Z,92.7
2019-05-05T04:30:00.937Z,92.7
2019-05-05T04:35:00.809Z,91.4
2019-05-05T04:40:00.760Z,91.6
2019-05-05T04:45:00.644Z,91.3
2019-05-05T04:50:00.542Z,92.2
2019-05-05T04:55:00.546Z,91.8
2019-05-05T05:00:00.676Z,92.2
2019-05-05T05:05:00.511Z,91.4
2019-05-05T05:10:00.677Z,90.2
2019-05-05T05:15:00.766Z,89.5
2019-05-05T05:20:00.398Z,89.1
2019-05-05T05:25:00.685Z,86
2019-05-05T05:30:00.467Z,83.8
2019-05-05T05:35:00.998Z,81.5
2019-05-05T05:40:00.448Z,81.3
2019-05-05T05:45:00.666Z,82.4
2019-05-05T05:50:00.641Z,82.5
2019-05-05T05:55:00.348Z,83.6
2019-05-05T06:00:00.317Z,84.7
2019-05-05T06:05:00.486Z,84.8
2019-05-05T06:10:00.191Z,84.8
2019-05-05T06:15:00.622Z,83.8
2019-05-05T06:20:00.662Z,82.9
2019-05-05T06:25:00.229Z,82
2019-05-05T06:30:00.505Z,79.8
2019-05-05T06:35:00.143Z,81.3
2019-05-05T06:40:00.449Z,77.8
2019-05-05T06:45:00.421Z,78.1
2019-05-05T06:50:00.480Z,77.5
2019-05-05T06:55:00.143Z,77.3
2019-05-05T07:00:00.556Z,76.4
2019-05-05T07:05:00.302Z,75.6
2019-05-05T07:10:00.812Z,72.6
2019-05-05T07:15:00.060Z,73.7
2019-05-05T07:20:00.609Z,76.3
2019-05-05T07:25:00.181Z,74.5
2019-05-05T07:30:01.131Z,71.8
2019-05-05T07:35:00.246Z,70
2019-05-05T07:40:00.280Z,65.3
2019-05-05T07:45:00.350Z,65.7
2019-05-05T07:50:00.507Z,65.4
2019-05-05T07:55:00.416Z,66.7
2019-05-05T08:00:00.170Z,64.6
2019-05-05T08:05:00.502Z,64.2
2019-05-05T08:10:00.428Z,64.2
2019-05-05T08:15:00.786Z,65.5
2019-05-05T08:20:00.434Z,66.4
2019-05-05T08:25:00.163Z,68
2019-05-05T08:30:03.079Z,70
2019-05-05T08:35:01.063Z,69.3
2019-05-05T08:40:00.129Z,67.3
2019-05-05T08:45:00.472Z,65.1
2019-05-05T08:50:00.341Z,63.4
2019-05-05T08:55:00.263Z,64.1
2019-05-05T09:00:00.397Z,62.4
2019-05-05T09:05:00.138Z,63.5
2019-05-05T09:10:00.045Z,62.3
2019-05-05T09:15:00.130Z,66.8
2019-05-05T09:20:00.300Z,73.1
2019-05-05T09:25:00.126Z,76
2019-05-05T09:30:00.480Z,77
2019-05-05T09:35:00.390Z,77.6
2019-05-05T09:39:59.895Z,74.4
2019-05-05T09:45:00.028Z,71.2
2019-05-05T09:49:59.893Z,70.3
2019-05-05T09:55:00.571Z,64.3
2019-05-05T10:00:00.185Z,61.9
2019-05-05T10:05:00.125Z,63.4
2019-05-05T10:10:00.096Z,70.1
2019-05-05T10:15:00.228Z,71.4
2019-05-05T10:20:00.143Z,67.8
2019-05-05T10:24:59.927Z,67.4
2019-05-05T10:30:00.296Z,64.7
2019-05-05T10:34:59.998Z,61.7
2019-05-05T10:40:00.521Z,62.8
2019-05-05T10:44:59.859Z,65.1
2019-05-05T10:50:00.257Z,65.8
2019-05-05T10:54:59.712Z,61.4
2019-05-05T11:00:10.131Z,62.9
2019-05-05T11:04:59.814Z,61
2019-05-05T11:10:00.351Z,63.2
2019-05-05T11:15:00.131Z,69
2019-05-05T11:19:59.955Z,69.2
2019-05-05T11:25:01.194Z,75
2019-05-05T11:29:59.913Z,73.8
2019-05-05T11:34:59.989Z,73.5
2019-05-05T11:40:00.506Z,69.9
2019-05-05T11:45:00.032Z,72.1
2019-05-05T11:49:59.785Z,74.5
2019-05-05T11:55:11.253Z,73.1
2019-05-05T11:59:59.818Z,74
2019-05-05T12:04:59.947Z,73.4
2019-05-05T12:10:00.581Z,71.6
2019-05-05T12:15:00.247Z,67.3
2019-05-05T12:20:00.196Z,59.9
2019-05-05T12:24:59.723Z,62.4
2019-05-05T12:29:59.833Z,58.8
2019-05-05T12:34:59.705Z,56.2
2019-05-05T12:40:00.027Z,52.9
2019-05-05T12:44:59.940Z,49.6
2019-05-05T12:49:59.905Z,51.5
2019-05-05T12:55:02.165Z,49.9
2019-05-05T12:59:59.883Z,47.4
2019-05-05T13:04:59.928Z,51.6
2019-05-05T13:09:59.723Z,50.8
2019-05-05T13:14:59.886Z,50.6
2019-05-05T13:19:59.994Z,53.2
2019-05-05T13:24:59.987Z,54.2
2019-05-05T13:29:59.963Z,56.1
2019-05-05T13:34:59.866Z,53.5
2019-05-05T13:40:00.010Z,54.6
2019-05-05T13:45:00.034Z,53.9
2019-05-05T13:49:59.614Z,67.1
2019-05-05T13:55:00.107Z,74.4
2019-05-05T13:59:59.773Z,81.9
2019-05-05T14:04:59.840Z,82.5
2019-05-05T14:09:59.668Z,86.5
2019-05-05T14:14:59.935Z,81.5
2019-05-05T14:20:05.228Z,76.8
2019-05-05T14:24:59.751Z,80.2
2019-05-05T14:30:04.102Z,76
2019-05-05T14:34:59.916Z,74.2
2019-05-05T14:39:59.966Z,70.4
2019-05-05T14:44:59.735Z,68.9
2019-05-05T14:50:07.862Z,68.4
2019-05-05T14:54:59.990Z,68
2019-05-05T15:00:00.272Z,69.3
2019-05-05T15:05:03.761Z,69.7
2019-05-05T15:10:01.840Z,71.4
2019-05-05T15:15:04.193Z,68.6
2019-05-05T15:19:59.704Z,67.5
2019-05-05T15:24:59.981Z,64.2
2019-05-05T15:29:59.827Z,63.8
2019-05-05T15:34:59.734Z,64.9
2019-05-05T15:39:59.798Z,71.2
2019-05-05T15:45:00.244Z,75.3
2019-05-05T15:50:00.041Z,71.6
2019-05-05T15:54:59.978Z,73.6
2019-05-05T16:00:00.064Z,70.4
2019-05-05T16:04:59.933Z,68.5
2019-05-05T16:10:00.313Z,67.7
2019-05-05T16:14:59.824Z,63.3
2019-05-05T16:20:00.274Z,58.5
2019-05-05T16:24:59.884Z,57.9
2019-05-05T16:30:00.098Z,55.7
2019-05-05T16:34:59.810Z,59.5
2019-05-05T16:39:59.794Z,57.2
2019-05-05T16:44:59.499Z,56.2
2019-05-05T16:49:59.882Z,63.6
2019-05-05T16:54:59.870Z,65.7
2019-05-05T16:59:59.730Z,65.8
2019-05-05T17:04:59.653Z,65.7
2019-05-05T17:10:00.444Z,62.5
2019-05-05T17:14:59.713Z,62.3
2019-05-05T17:19:59.806Z,60.4
2019-05-05T17:24:59.790Z,55.5
2019-05-05T17:29:59.693Z,54.7
2019-05-05T17:34:59.555Z,60.1
2019-05-05T17:40:00.866Z,67.4
2019-05-05T17:44:59.444Z,68.8
2019-05-05T17:49:59.735Z,68.6
2019-05-05T17:54:59.849Z,70.4
2019-05-05T18:00:00.842Z,76
2019-05-05T18:04:59.311Z,76.4
2019-05-05T18:09:59.791Z,77.2
2019-05-05T18:15:01.189Z,79.5
2019-05-05T18:19:59.828Z,81
2019-05-05T18:25:00.140Z,78.5
2019-05-05T18:29:59.615Z,76.6
2019-05-05T18:35:04.474Z,75.8
2019-05-05T18:39:59.469Z,76.9
2019-05-05T18:45:04.019Z,79.9
2019-05-05T18:50:00.577Z,82.5
2019-05-05T18:55:00.089Z,80.5
2019-05-05T19:00:18.690Z,79
2019-05-05T19:05:00.921Z,78.4
2019-05-05T19:09:59.657Z,76
2019-05-05T19:15:04.318Z,78.5
2019-05-05T19:19:59.465Z,78
2019-05-05T19:25:01.072Z,79
2019-05-05T19:30:00.221Z,80.5
2019-05-05T19:35:01.001Z,81.5
2019-05-05T19:40:05.830Z,81.5
2019-05-05T19:45:01.491Z,81.1
2019-05-05T19:49:59.790Z,79.4
2019-05-05T20:45:24.277Z,78.9
2019-05-05T20:50:04.750Z,78.4
2019-05-05T20:55:04.625Z,79
2019-05-05T21:00:03.261Z,79.3
2019-05-05T21:05:04.074Z,79.4
2019-05-05T21:10:04.106Z,78.3
2019-05-05T21:25:06.113Z,79.1
2019-05-05T21:30:04.094Z,79
2019-05-05T21:35:02.065Z,79.6
2019-05-05T21:40:04.465Z,79.9
2019-05-05T21:45:01.824Z,79.7
2019-05-05T21:50:03.707Z,79.1
2019-05-05T21:55:04.097Z,78.5
2019-05-05T22:00:01.868Z,79.4
2019-05-05T22:05:04.027Z,80.1
2019-05-05T22:10:04.301Z,79.1
2019-05-05T22:15:04.328Z,78.3
2019-05-05T22:20:04.038Z,80
2019-05-05T22:25:03.661Z,79.3
2019-05-05T22:30:09.493Z,80.2
2019-05-05T22:35:02.136Z,80.4
2019-05-05T22:40:02.060Z,80.5
2019-05-05T22:45:02.672Z,80.8
2019-05-05T22:50:04.265Z,80.7
2019-05-05T22:55:04.427Z,80.8
2019-05-05T23:00:03.771Z,80.3
2019-05-05T23:05:04.020Z,80.6
2019-05-05T23:10:04.441Z,81.4
2019-05-05T23:15:03.933Z,81.6
2019-05-05T23:20:04.642Z,81.8
2019-05-05T23:25:03.962Z,82.3
2019-05-05T23:30:01.905Z,81.1
2019-05-05T23:35:01.813Z,79.1
2019-05-05T23:40:03.819Z,79.3
2019-05-05T23:45:04.263Z,80.4
2019-05-05T23:50:04.377Z,81.6
2019-05-05T23:55:03.912Z,82.2
